Forester — DIUT — position and weather

sailwx.info

Track history (hours):
 
Tides and Currents Weather Stations Pressure Air Temp Water Temp Dewpoint Dewpoint Depression Visibility Wind Speed Wind Dir Waves Ship Positions

Forester

Last reported at 2015-Aug-28 00:33 UTC. Time now 2015-Aug-28 02:21 UTC.
Position N 51°04' E 004°22'.

Length 100 m; draft 5.1 m.

Type: Ship. MMSI: 211233870.

Date/timePositionNaut miles runAvg speedWind from/ knotsBaromVisibWave heightAir tempDewpointWater temp
2015-Aug-28 00:33N 51°04' E 004°22'0 0.0
2015-Aug-27 18:30N 51°04' E 004°22'0 0.0
2015-Aug-27 17:15N 51°04' E 004°22'0 0.0
2015-Aug-27 14:15N 51°04' E 004°22'0 0.0
2015-Aug-27 13:30N 51°04' E 004°22'0 0.0
2015-Aug-27 12:26N 51°04' E 004°22'0 0.0
2015-Aug-27 11:14N 51°04' E 004°22'0 0.7
2015-Aug-27 10:33N 51°05' E 004°21'3 3.0
2015-Aug-27 09:33N 51°07' E 004°18'7 6.6
2015-Aug-27 08:33N 51°13' E 004°23'4 4.3
2015-Aug-27 07:33N 51°17' E 004°20'3 3.1
2015-Aug-27 06:34N 51°15' E 004°24'1 1.0
2015-Aug-27 05:33N 51°16' E 004°25'0 0.0
2015-Aug-27 04:33N 51°16' E 004°25'0 0.0
2015-Aug-27 03:33N 51°16' E 004°25'0 0.0
2015-Aug-27 02:33N 51°16' E 004°25'0 0.0
2015-Aug-27 01:33N 51°16' E 004°25'0 0.0
2015-Aug-27 00:33N 51°16' E 004°25'0 0.0
2015-Aug-26 23:33N 51°16' E 004°25'0 0.0
2015-Aug-26 22:33N 51°16' E 004°25'0 0.0
2015-Aug-26 21:33N 51°16' E 004°25'0 0.0
2015-Aug-26 20:33N 51°16' E 004°25'0 0.0
2015-Aug-26 19:33N 51°16' E 004°25'0 0.0
2015-Aug-26 18:33N 51°16' E 004°25'0 0.0
2015-Aug-26 17:33N 51°16' E 004°25'0 0.0
2015-Aug-26 16:33N 51°16' E 004°25'0 0.0
2015-Aug-26 15:33N 51°16' E 004°25'0 0.0
2015-Aug-26 14:33N 51°16' E 004°25'0 0.0
2015-Aug-26 13:33N 51°16' E 004°25'0 0.0
2015-Aug-26 12:33N 51°16' E 004°25'0 0.0
2015-Aug-26 11:33N 51°16' E 004°25'0 0.0
2015-Aug-26 10:33N 51°16' E 004°25'0 0.0
2015-Aug-26 09:33N 51°16' E 004°25'0 0.0
2015-Aug-26 08:33N 51°16' E 004°25'0 0.0
2015-Aug-26 07:33N 51°16' E 004°25'0 0.0
2015-Aug-26 06:33N 51°16' E 004°25'0 0.0
2015-Aug-26 05:33N 51°16' E 004°25'0 0.0
2015-Aug-26 04:32N 51°16' E 004°25'0 0.0
2015-Aug-26 03:32N 51°16' E 004°25'0 0.0
2015-Aug-26 02:32N 51°16' E 004°25'0 0.0
2015-Aug-26 01:32N 51°16' E 004°25'0 0.0
2015-Aug-26 00:32N 51°16' E 004°25'0 0.0
2015-Aug-25 23:32N 51°16' E 004°25'0 0.0
2015-Aug-25 22:32N 51°16' E 004°25'0 0.0
2015-Aug-25 21:32N 51°16' E 004°25'0 0.0
2015-Aug-25 20:32N 51°16' E 004°25'0 0.0
2015-Aug-25 19:32N 51°16' E 004°25'0 0.0
2015-Aug-25 18:32N 51°16' E 004°25'0 0.0
2015-Aug-25 17:32N 51°16' E 004°25'0 0.0
2015-Aug-25 16:32N 51°16' E 004°25'0 0.0
2015-Aug-25 15:32N 51°16' E 004°25'0 0.0
2015-Aug-25 14:32N 51°16' E 004°25'0 0.0
2015-Aug-25 13:32N 51°16' E 004°25'0 0.0
2015-Aug-25 12:32N 51°16' E 004°25'0 0.0
2015-Aug-25 11:32N 51°16' E 004°25'0 0.0
2015-Aug-25 10:34N 51°16' E 004°25'0 0.0
2015-Aug-25 09:34N 51°16' E 004°25'3 2.9
2015-Aug-25 08:34N 51°17' E 004°20'4 4.4
2015-Aug-25 07:33N 51°21' E 004°17'1 1.2
2015-Aug-25 06:33N 51°21' E 004°15'4 3.8
2015-Aug-25 05:33N 51°23' E 004°10'4 4.1
2015-Aug-25 04:34N 51°22' E 004°04'5 4.6
2015-Aug-25 03:34N 51°26' E 003°59'8 8.4
2015-Aug-25 02:34N 51°21' E 003°49'9 8.9
2015-Aug-25 01:34N 51°26' E 003°37'7 6.8
2015-Aug-25 00:33N 51°30' E 003°28'9 9.0
2015-Aug-24 23:31N 51°38' E 003°21'10 4.8
2015-Aug-24 21:22N 51°47' E 003°13'12 6.1
2015-Aug-24 19:23N 51°59' E 003°20'10110.3
2015-Aug-24 09:33N 53°28' E 004°39'1010.5
2015-Aug-24 08:34N 53°32' E 004°55'1211.2
2015-Aug-24 07:32N 53°35' E 005°14'1111.8
2015-Aug-24 06:33N 53°39' E 005°32'1111.3
2015-Aug-24 05:33N 53°43' E 005°50'3711.3
2015-Aug-24 02:17N 53°53' E 006°51'5 6.0
2015-Aug-24 01:32N 53°54' E 006°58'1010.2
2015-Aug-24 00:32N 53°56' E 007°15'1010.5
2015-Aug-23 23:33N 53°59' E 007°32'1111.1
2015-Aug-23 22:33N 54°01' E 007°50'1211.6
2015-Aug-23 21:34N 54°01' E 008°10'1110.9
2015-Aug-23 20:33N 53°59' E 008°28'1212.1
2015-Aug-23 19:33N 53°52' E 008°45'1010.1
2015-Aug-23 18:33N 53°52' E 009°02'4 4.5
2015-Aug-23 17:33N 53°54' E 009°09'7 7.1
2015-Aug-23 16:34N 53°59' E 009°17'6 6.4
2015-Aug-23 15:34N 54°05' E 009°19'8 7.9
2015-Aug-23 14:33N 54°11' E 009°28'8 8.3
2015-Aug-23 13:33N 54°17' E 009°38'4 4.0
2015-Aug-23 12:33N 54°20' E 009°43'6 6.1
2015-Aug-23 11:33N 54°21' E 009°53'7 7.5
2015-Aug-23 10:33N 54°22' E 010°06'1 1.0
2015-Aug-23 09:33N 54°22' E 010°08'1 0.9
2015-Aug-23 08:33N 54°22' E 010°09'10 9.9
2015-Aug-23 07:33N 54°30' E 010°18'1010.2
2015-Aug-23 06:33N 54°34' E 010°35'1010.1
2015-Aug-23 05:33N 54°35' E 010°52'1110.5
2015-Aug-23 04:33N 54°36' E 011°10'1110.7
2015-Aug-23 03:33N 54°32' E 011°27'1010.4
2015-Aug-23 02:33N 54°28' E 011°44'1010.3
2015-Aug-23 01:33N 54°27' E 012°01'9 8.9
2015-Aug-23 00:33N 54°33' E 012°13'1010.1
2015-Aug-22 23:33N 54°40' E 012°25'1010.4
2015-Aug-22 22:33N 54°44' E 012°42'1010.4
2015-Aug-22 21:33N 54°46' E 012°60'1110.9
2015-Aug-22 20:33N 54°48' E 013°19'1111.2
2015-Aug-22 19:33N 54°50' E 013°38'1111.1
2015-Aug-22 18:33N 54°52' E 013°57'1111.2
2015-Aug-22 17:33N 54°53' E 014°16'1111.1
2015-Aug-22 16:33N 54°54' E 014°35'1111.1
2015-Aug-22 15:33N 54°56' E 014°54'1111.0
2015-Aug-22 14:33N 54°58' E 015°13'1111.0
2015-Aug-22 13:33N 55°00' E 015°32'1111.3
2015-Aug-22 12:33N 55°03' E 015°51'1111.4
2015-Aug-22 11:33N 55°06' E 016°10'1111.3
2015-Aug-22 10:33N 55°09' E 016°29'1211.6
2015-Aug-22 09:33N 55°12' E 016°49'1111.4
2015-Aug-22 08:33N 55°15' E 017°08'1111.2
2015-Aug-22 07:33N 55°18' E 017°27'1110.9
2015-Aug-22 06:33N 55°20' E 017°46'1010.5
2015-Aug-22 05:33N 55°22' E 018°04'1010.3
2015-Aug-22 04:33N 55°25' E 018°21'1010.4
2015-Aug-22 03:33N 55°27' E 018°39'1010.5
2015-Aug-22 02:33N 55°29' E 018°57'1010.5
2015-Aug-22 01:33N 55°31' E 019°15'1010.5
2015-Aug-22 00:33N 55°34' E 019°33'1010.4
2015-Aug-21 23:33N 55°36' E 019°52'1010.5
2015-Aug-21 22:33N 55°38' E 020°10'1210.6
2015-Aug-21 21:25N 55°40' E 020°31'1410.6
2015-Aug-21 20:04N 55°43' E 020°56'5 9.5
2015-Aug-21 19:30N 55°44' E 021°05'  
2015-Aug-19 08:31N 55°42' E 020°51'0 0.0
2015-Aug-19 07:28N 55°42' E 020°51'0 0.0
2015-Aug-19 06:31N 55°42' E 020°51'0 0.0
2015-Aug-19 05:31N 55°42' E 020°51'0 0.0
2015-Aug-19 04:31N 55°42' E 020°51'0 0.0
2015-Aug-19 03:31N 55°42' E 020°51'0 0.0
2015-Aug-19 02:31N 55°42' E 020°51'0 0.0
2015-Aug-18 17:33N 55°42' E 020°51'0 0.0
2015-Aug-18 16:30N 55°42' E 020°51'  
Track history (hours):
 
Tides and Currents Weather Stations Pressure Air Temp Water Temp Dewpoint Dewpoint Depression Visibility Wind Speed Wind Dir Waves Ship Positions

Forester

Last reported at 2015-Aug-28 00:33 UTC. Time now 2015-Aug-28 02:21 UTC.
Position N 51°04' E 004°22'.

Length 100 m; draft 5.1 m.

Type: Ship. MMSI: 211233870.

Date/timePositionNaut miles runAvg speedWind from/ knotsBaromVisibWave heightAir tempDewpointWater temp
2015-Aug-28 00:33N 51°04' E 004°22'0 0.0
2015-Aug-27 18:30N 51°04' E 004°22'0 0.0
2015-Aug-27 17:15N 51°04' E 004°22'0 0.0
2015-Aug-27 14:15N 51°04' E 004°22'0 0.0
2015-Aug-27 13:30N 51°04' E 004°22'0 0.0
2015-Aug-27 12:26N 51°04' E 004°22'0 0.0
2015-Aug-27 11:14N 51°04' E 004°22'0 0.7
2015-Aug-27 10:33N 51°05' E 004°21'3 3.0
2015-Aug-27 09:33N 51°07' E 004°18'7 6.6
2015-Aug-27 08:33N 51°13' E 004°23'4 4.3
2015-Aug-27 07:33N 51°17' E 004°20'3 3.1
2015-Aug-27 06:34N 51°15' E 004°24'1 1.0
2015-Aug-27 05:33N 51°16' E 004°25'0 0.0
2015-Aug-27 04:33N 51°16' E 004°25'0 0.0
2015-Aug-27 03:33N 51°16' E 004°25'0 0.0
2015-Aug-27 02:33N 51°16' E 004°25'0 0.0
2015-Aug-27 01:33N 51°16' E 004°25'0 0.0
2015-Aug-27 00:33N 51°16' E 004°25'0 0.0
2015-Aug-26 23:33N 51°16' E 004°25'0 0.0
2015-Aug-26 22:33N 51°16' E 004°25'0 0.0
2015-Aug-26 21:33N 51°16' E 004°25'0 0.0
2015-Aug-26 20:33N 51°16' E 004°25'0 0.0
2015-Aug-26 19:33N 51°16' E 004°25'0 0.0
2015-Aug-26 18:33N 51°16' E 004°25'0 0.0
2015-Aug-26 17:33N 51°16' E 004°25'0 0.0
2015-Aug-26 16:33N 51°16' E 004°25'0 0.0
2015-Aug-26 15:33N 51°16' E 004°25'0 0.0
2015-Aug-26 14:33N 51°16' E 004°25'0 0.0
2015-Aug-26 13:33N 51°16' E 004°25'0 0.0
2015-Aug-26 12:33N 51°16' E 004°25'0 0.0
2015-Aug-26 11:33N 51°16' E 004°25'0 0.0
2015-Aug-26 10:33N 51°16' E 004°25'0 0.0
2015-Aug-26 09:33N 51°16' E 004°25'0 0.0
2015-Aug-26 08:33N 51°16' E 004°25'0 0.0
2015-Aug-26 07:33N 51°16' E 004°25'0 0.0
2015-Aug-26 06:33N 51°16' E 004°25'0 0.0
2015-Aug-26 05:33N 51°16' E 004°25'0 0.0
2015-Aug-26 04:32N 51°16' E 004°25'0 0.0
2015-Aug-26 03:32N 51°16' E 004°25'0 0.0
2015-Aug-26 02:32N 51°16' E 004°25'0 0.0
2015-Aug-26 01:32N 51°16' E 004°25'0 0.0
2015-Aug-26 00:32N 51°16' E 004°25'0 0.0
2015-Aug-25 23:32N 51°16' E 004°25'0 0.0
2015-Aug-25 22:32N 51°16' E 004°25'0 0.0
2015-Aug-25 21:32N 51°16' E 004°25'0 0.0
2015-Aug-25 20:32N 51°16' E 004°25'0 0.0
2015-Aug-25 19:32N 51°16' E 004°25'0 0.0
2015-Aug-25 18:32N 51°16' E 004°25'0 0.0
2015-Aug-25 17:32N 51°16' E 004°25'0 0.0
2015-Aug-25 16:32N 51°16' E 004°25'0 0.0
2015-Aug-25 15:32N 51°16' E 004°25'0 0.0
2015-Aug-25 14:32N 51°16' E 004°25'0 0.0
2015-Aug-25 13:32N 51°16' E 004°25'0 0.0
2015-Aug-25 12:32N 51°16' E 004°25'0 0.0
2015-Aug-25 11:32N 51°16' E 004°25'0 0.0
2015-Aug-25 10:34N 51°16' E 004°25'0 0.0
2015-Aug-25 09:34N 51°16' E 004°25'3 2.9
2015-Aug-25 08:34N 51°17' E 004°20'4 4.4
2015-Aug-25 07:33N 51°21' E 004°17'1 1.2
2015-Aug-25 06:33N 51°21' E 004°15'4 3.8
2015-Aug-25 05:33N 51°23' E 004°10'4 4.1
2015-Aug-25 04:34N 51°22' E 004°04'5 4.6
2015-Aug-25 03:34N 51°26' E 003°59'8 8.4
2015-Aug-25 02:34N 51°21' E 003°49'9 8.9
2015-Aug-25 01:34N 51°26' E 003°37'7 6.8
2015-Aug-25 00:33N 51°30' E 003°28'9 9.0
2015-Aug-24 23:31N 51°38' E 003°21'10 4.8
2015-Aug-24 21:22N 51°47' E 003°13'12 6.1
2015-Aug-24 19:23N 51°59' E 003°20'10110.3
2015-Aug-24 09:33N 53°28' E 004°39'1010.5
2015-Aug-24 08:34N 53°32' E 004°55'1211.2
2015-Aug-24 07:32N 53°35' E 005°14'1111.8
2015-Aug-24 06:33N 53°39' E 005°32'1111.3
2015-Aug-24 05:33N 53°43' E 005°50'3711.3
2015-Aug-24 02:17N 53°53' E 006°51'5 6.0
2015-Aug-24 01:32N 53°54' E 006°58'1010.2
2015-Aug-24 00:32N 53°56' E 007°15'1010.5
2015-Aug-23 23:33N 53°59' E 007°32'1111.1
2015-Aug-23 22:33N 54°01' E 007°50'1211.6
2015-Aug-23 21:34N 54°01' E 008°10'1110.9
2015-Aug-23 20:33N 53°59' E 008°28'1212.1
2015-Aug-23 19:33N 53°52' E 008°45'1010.1
2015-Aug-23 18:33N 53°52' E 009°02'4 4.5
2015-Aug-23 17:33N 53°54' E 009°09'7 7.1
2015-Aug-23 16:34N 53°59' E 009°17'6 6.4
2015-Aug-23 15:34N 54°05' E 009°19'8 7.9
2015-Aug-23 14:33N 54°11' E 009°28'8 8.3
2015-Aug-23 13:33N 54°17' E 009°38'4 4.0
2015-Aug-23 12:33N 54°20' E 009°43'6 6.1
2015-Aug-23 11:33N 54°21' E 009°53'7 7.5
2015-Aug-23 10:33N 54°22' E 010°06'1 1.0
2015-Aug-23 09:33N 54°22' E 010°08'1 0.9
2015-Aug-23 08:33N 54°22' E 010°09'10 9.9
2015-Aug-23 07:33N 54°30' E 010°18'1010.2
2015-Aug-23 06:33N 54°34' E 010°35'1010.1
2015-Aug-23 05:33N 54°35' E 010°52'1110.5
2015-Aug-23 04:33N 54°36' E 011°10'1110.7
2015-Aug-23 03:33N 54°32' E 011°27'1010.4
2015-Aug-23 02:33N 54°28' E 011°44'1010.3
2015-Aug-23 01:33N 54°27' E 012°01'9 8.9
2015-Aug-23 00:33N 54°33' E 012°13'1010.1
2015-Aug-22 23:33N 54°40' E 012°25'1010.4
2015-Aug-22 22:33N 54°44' E 012°42'1010.4
2015-Aug-22 21:33N 54°46' E 012°60'1110.9
2015-Aug-22 20:33N 54°48' E 013°19'1111.2
2015-Aug-22 19:33N 54°50' E 013°38'1111.1
2015-Aug-22 18:33N 54°52' E 013°57'1111.2
2015-Aug-22 17:33N 54°53' E 014°16'1111.1
2015-Aug-22 16:33N 54°54' E 014°35'1111.1
2015-Aug-22 15:33N 54°56' E 014°54'1111.0
2015-Aug-22 14:33N 54°58' E 015°13'1111.0
2015-Aug-22 13:33N 55°00' E 015°32'1111.3
2015-Aug-22 12:33N 55°03' E 015°51'1111.4
2015-Aug-22 11:33N 55°06' E 016°10'1111.3
2015-Aug-22 10:33N 55°09' E 016°29'1211.6
2015-Aug-22 09:33N 55°12' E 016°49'1111.4
2015-Aug-22 08:33N 55°15' E 017°08'1111.2
2015-Aug-22 07:33N 55°18' E 017°27'1110.9
2015-Aug-22 06:33N 55°20' E 017°46'1010.5
2015-Aug-22 05:33N 55°22' E 018°04'1010.3
2015-Aug-22 04:33N 55°25' E 018°21'1010.4
2015-Aug-22 03:33N 55°27' E 018°39'1010.5
2015-Aug-22 02:33N 55°29' E 018°57'1010.5
2015-Aug-22 01:33N 55°31' E 019°15'1010.5
2015-Aug-22 00:33N 55°34' E 019°33'1010.4
2015-Aug-21 23:33N 55°36' E 019°52'1010.5
2015-Aug-21 22:33N 55°38' E 020°10'1210.6
2015-Aug-21 21:25N 55°40' E 020°31'1410.6
2015-Aug-21 20:04N 55°43' E 020°56'5 9.5
2015-Aug-21 19:30N 55°44' E 021°05'  
2015-Aug-19 08:31N 55°42' E 020°51'0 0.0
2015-Aug-19 07:28N 55°42' E 020°51'0 0.0
2015-Aug-19 06:31N 55°42' E 020°51'0 0.0
2015-Aug-19 05:31N 55°42' E 020°51'0 0.0
2015-Aug-19 04:31N 55°42' E 020°51'0 0.0
2015-Aug-19 03:31N 55°42' E 020°51'0 0.0
2015-Aug-19 02:31N 55°42' E 020°51'0 0.0
2015-Aug-18 17:33N 55°42' E 020°51'0 0.0
2015-Aug-18 16:30N 55°42' E 020°51'  

Dump ship's entire track history